Sunday, December 17, 2017, 4:33 PM EST
Back to Local

KHYA, Hyannis Barnstable Boardmn

Location: West Yarmouth, MA, United States Lat: 41.667
Local Time: 4:33 PM EST (21:33 GMT) Lon: -70.267
Time Zone: US/Eastern Elev: 52 ft

Show me the last for .
Show Decoded

2017-12-17 15:56 METAR KHYA 172056Z 28003KT 10SM CLR M02/M16 A3023 RMK AO2 SLP237 T10221161 53006
                 =
2017-12-17 14:56 METAR KHYA 171956Z 31004KT 10SM CLR M02/M15 A3020 RMK AO2 SLP228 T10171150 =
2017-12-17 13:56 METAR KHYA 171856Z 33004KT 10SM CLR M02/M16 A3020 RMK AO2 SLP229 T10171156 =
2017-12-17 12:56 METAR KHYA 171756Z 33009KT 10SM CLR M02/M14 A3021 RMK AO2 SLP231 T10171139 11011
                 21067 58012 =
2017-12-17 11:56 METAR KHYA 171656Z 33007KT 10SM CLR M02/M13 A3023 RMK AO2 SLP237 T10171128 =
2017-12-17 10:56 METAR KHYA 171556Z 33008KT 10SM CLR M02/M12 A3023 RMK AO2 SLP239 T10221117 =
2017-12-17 09:56 METAR KHYA 171456Z 33008G16KT 10SM CLR M03/M12 A3024 RMK AO2 SLP243 T10281122
                 53003 =
2017-12-17 08:56 METAR KHYA 171356Z 30007KT 10SM CLR M04/M12 A3024 RMK AO2 SLP243 T10441122 =
2017-12-17 07:56 METAR KHYA 171256Z 30005KT 10SM CLR M06/M14 A3024 RMK AO2 SLP240 T10611139 =
2017-12-17 06:56 METAR KHYA 171156Z 30006KT 10SM CLR M07/M14 A3024 RMK AO2 SLP240 T10671144 11033
                 21072 50017 =
2017-12-17 05:56 METAR KHYA 171056Z 28007KT 10SM CLR M07/M13 A3024 RMK AO2 SLP243 T10671128 =
2017-12-17 04:56 METAR KHYA 170956Z AUTO 30005KT 10SM CLR M06/M12 A3021 RMK AO2 SLP232 T10611122
                 =
2017-12-17 03:56 METAR KHYA 170856Z AUTO 28005KT 10SM CLR M06/M11 A3018 RMK AO2 SLP223 T10561111
                 51012 =
2017-12-17 02:56 METAR KHYA 170756Z AUTO 30005KT 10SM CLR M04/M12 A3018 RMK AO2 SLP221 T10441117
                 =
2017-12-17 01:56 METAR KHYA 170656Z AUTO 29006KT 10SM CLR M04/M11 A3017 RMK AO2 SLP217 T10441111
                 =
2017-12-17 00:56 METAR KHYA 170556Z AUTO 29007KT 10SM CLR M03/M11 A3015 RMK AO2 SLP211 T10331106
                 11011 21039 51014 =
2017-12-16 23:56 METAR KHYA 170456Z AUTO 30006KT 10SM CLR M03/M10 A3014 RMK AO2 SLP208 T10331100
                 400111061 =
2017-12-16 22:56 METAR KHYA 170356Z AUTO 28006KT 10SM CLR M03/M09 A3013 RMK AO2 SLP204 T10281094
                 =
2017-12-16 21:56 METAR KHYA 170256Z 30007KT 10SM CLR M02/M09 A3011 RMK AO2 SLP197 T10221089 51025
                 =
2017-12-16 20:56 METAR KHYA 170156Z AUTO 28007KT 10SM CLR M02/M08 A3009 RMK AO2 SLP191 T10221083
                 =
2017-12-16 19:56 METAR KHYA 170056Z 29007KT 10SM CLR M02/M08 A3006 RMK AO2 SLP180 T10171083 =
2017-12-16 18:56 METAR KHYA 162356Z 30007KT 10SM FEW085 M01/M08 A3003 RMK AO2 SLP172 T10111083
                 10011 21017 53034 =
2017-12-16 17:56 METAR KHYA 162256Z 27004KT 10SM CLR M01/M08 A3000 RMK AO2 SLP160 T10111083 =
2017-12-16 16:56 METAR KHYA 162156Z 30006KT 10SM OVC110 M01/M09 A2996 RMK AO2 SLP145 T10061089 =

Support USWX by starting your Amazon purchase here.